createdAt,value
2018-09-12T00:00:17.661Z,16.60
2018-09-12T00:02:46.175Z,16.50
2018-09-12T00:05:14.737Z,16.40
2018-09-12T00:07:43.181Z,16.50
2018-09-12T00:10:11.789Z,16.60
2018-09-12T00:12:40.278Z,16.70
2018-09-12T00:15:09.514Z,16.70
2018-09-12T00:17:38.481Z,16.60
2018-09-12T00:20:07.029Z,16.50
2018-09-12T00:22:35.802Z,16.40
2018-09-12T00:25:04.412Z,16.50
2018-09-12T00:27:32.840Z,16.60
2018-09-12T00:30:01.319Z,16.60
2018-09-12T00:32:29.863Z,16.50
2018-09-12T00:34:58.496Z,16.40
2018-09-12T00:37:26.982Z,16.40
2018-09-12T00:39:55.395Z,16.40
2018-09-12T00:42:23.876Z,16.50
2018-09-12T00:44:52.354Z,16.40
2018-09-12T00:47:20.833Z,16.30
2018-09-12T00:49:49.374Z,16.40
2018-09-12T00:52:17.834Z,16.30
2018-09-12T00:54:46.364Z,16.50
2018-09-12T00:57:14.789Z,16.50
2018-09-12T00:59:43.307Z,16.60
2018-09-12T01:02:11.733Z,16.60
2018-09-12T01:04:40.298Z,16.60
2018-09-12T01:07:09.485Z,16.60
2018-09-12T01:09:38.560Z,16.50
2018-09-12T01:12:07.077Z,16.50
2018-09-12T01:14:35.615Z,16.50
2018-09-12T01:17:04.081Z,16.40
2018-09-12T01:19:32.648Z,16.40
2018-09-12T01:22:01.117Z,16.30
2018-09-12T01:24:29.621Z,16.30
2018-09-12T01:26:58.084Z,16.30
2018-09-12T01:29:27.595Z,16.30
2018-09-12T01:31:56.275Z,16.30
2018-09-12T01:34:24.885Z,16.40
2018-09-12T01:36:53.347Z,16.40
2018-09-12T01:39:21.792Z,16.40
2018-09-12T01:41:50.302Z,16.30
2018-09-12T01:44:18.803Z,16.30
2018-09-12T01:46:47.242Z,16.30
2018-09-12T01:49:18.925Z,16.20
2018-09-12T01:51:48.931Z,16.20
2018-09-12T01:54:18.364Z,16.30
2018-09-12T01:56:46.963Z,16.30
2018-09-12T01:59:15.364Z,16.30
2018-09-12T02:01:44.888Z,16.30
2018-09-12T02:04:13.766Z,16.30
2018-09-12T02:06:42.189Z,16.30
2018-09-12T02:09:12.735Z,16.30
2018-09-12T02:11:41.264Z,16.30
2018-09-12T02:14:09.696Z,16.30
2018-09-12T02:16:38.875Z,16.30
2018-09-12T02:19:07.723Z,16.30
2018-09-12T02:21:36.175Z,16.30
2018-09-12T02:24:05.088Z,16.30
2018-09-12T02:26:33.617Z,16.40
2018-09-12T02:29:02.242Z,16.40
2018-09-12T02:31:30.780Z,16.30
2018-09-12T02:33:59.326Z,16.40
2018-09-12T02:36:28.851Z,16.40
2018-09-12T02:38:58.664Z,16.40
2018-09-12T02:41:27.040Z,16.30
2018-09-12T02:43:55.877Z,16.40
2018-09-12T02:46:24.711Z,16.30
2018-09-12T02:48:53.531Z,16.30
2018-09-12T02:51:21.985Z,16.40
2018-09-12T02:53:50.490Z,16.40
2018-09-12T02:56:19.237Z,16.40
2018-09-12T02:58:48.078Z,16.40
2018-09-12T03:01:16.577Z,16.30
2018-09-12T03:03:45.086Z,16.30
2018-09-12T03:06:13.571Z,16.30
2018-09-12T03:08:42.023Z,16.30
2018-09-12T03:11:10.468Z,16.30
2018-09-12T03:13:39.577Z,16.30
2018-09-12T03:16:08.023Z,16.40
2018-09-12T03:18:36.792Z,16.50
2018-09-12T03:21:05.787Z,16.40
2018-09-12T03:23:34.381Z,16.40
2018-09-12T03:26:02.806Z,16.40
2018-09-12T03:28:31.303Z,16.40
2018-09-12T03:30:59.727Z,16.30
2018-09-12T03:33:28.287Z,16.30
2018-09-12T03:35:56.748Z,16.30
2018-09-12T03:38:25.207Z,16.30
2018-09-12T03:40:53.595Z,16.30
2018-09-12T03:43:23.119Z,16.30
2018-09-12T03:45:51.566Z,16.20
2018-09-12T03:48:20.055Z,16.20
2018-09-12T03:50:48.474Z,16.20
2018-09-12T03:53:17.940Z,16.20
2018-09-12T03:55:48.134Z,16.30
2018-09-12T03:58:16.600Z,16.30
2018-09-12T04:00:45.119Z,16.30
2018-09-12T04:03:13.584Z,16.30
2018-09-12T04:05:42.307Z,16.30
2018-09-12T04:08:10.739Z,16.30
2018-09-12T04:10:40.006Z,16.30
2018-09-12T04:13:09.083Z,16.20
2018-09-12T04:15:37.729Z,16.30
2018-09-12T04:18:06.920Z,16.20
2018-09-12T04:20:35.387Z,16.20
2018-09-12T04:23:03.868Z,16.30
2018-09-12T04:25:32.347Z,16.30
2018-09-12T04:28:00.769Z,16.10
2018-09-12T04:30:29.264Z,16.10
2018-09-12T04:32:57.719Z,16.10
2018-09-12T04:35:26.182Z,16.10
2018-09-12T04:37:54.679Z,16.10
2018-09-12T04:40:23.154Z,16.10
2018-09-12T04:42:51.673Z,16.00
2018-09-12T04:45:20.382Z,16.10
2018-09-12T04:47:48.857Z,16.10
2018-09-12T04:50:17.247Z,16.00
2018-09-12T04:52:45.709Z,16.00
2018-09-12T04:55:14.255Z,16.10
2018-09-12T04:57:42.645Z,16.10
2018-09-12T05:00:11.601Z,16.00
2018-09-12T05:02:40.087Z,16.00
2018-09-12T05:05:09.243Z,16.00
2018-09-12T05:07:37.791Z,15.90
2018-09-12T05:10:06.377Z,15.80
2018-09-12T05:12:35.091Z,15.80
2018-09-12T05:15:03.641Z,15.80
2018-09-12T05:17:32.062Z,15.80
2018-09-12T05:20:00.625Z,15.80
2018-09-12T05:22:29.124Z,15.90
2018-09-12T05:24:57.602Z,15.90
2018-09-12T05:27:26.286Z,15.80
2018-09-12T05:29:54.736Z,15.90
2018-09-12T05:32:23.197Z,15.90
2018-09-12T05:34:51.762Z,15.90
2018-09-12T05:37:20.221Z,15.80
2018-09-12T05:39:49.489Z,15.80
2018-09-12T05:42:17.879Z,15.80
2018-09-12T05:44:46.308Z,15.80
2018-09-12T05:47:14.776Z,15.70
2018-09-12T05:49:43.247Z,15.90
2018-09-12T05:52:11.602Z,15.90
2018-09-12T05:54:40.092Z,15.90
2018-09-12T05:57:08.741Z,15.80
2018-09-12T05:59:37.801Z,15.80
2018-09-12T06:02:07.020Z,15.80
2018-09-12T06:04:35.624Z,15.90
2018-09-12T06:07:04.583Z,15.90
2018-09-12T06:09:33.093Z,15.90
2018-09-12T06:12:01.529Z,16.00
2018-09-12T06:14:29.960Z,16.10
2018-09-12T06:16:58.409Z,16.10
2018-09-12T06:19:26.945Z,16.30
2018-09-12T06:21:55.452Z,16.30
2018-09-12T06:24:23.858Z,16.40
2018-09-12T06:26:52.368Z,16.50
2018-09-12T06:29:20.762Z,16.50
2018-09-12T06:31:49.195Z,16.50
2018-09-12T06:34:17.738Z,16.50
2018-09-12T06:36:46.285Z,16.60
2018-09-12T06:39:14.726Z,16.70
2018-09-12T06:41:43.369Z,16.70
2018-09-12T06:44:12.013Z,16.80
2018-09-12T06:46:40.441Z,16.80
2018-09-12T06:49:08.870Z,16.90
2018-09-12T06:51:37.686Z,16.90
2018-09-12T06:54:06.222Z,17.10
2018-09-12T06:56:34.673Z,17.10
2018-09-12T06:59:03.218Z,17.10
2018-09-12T07:01:31.666Z,17.10
2018-09-12T07:04:00.142Z,17.10
2018-09-12T07:06:28.578Z,17.20
2018-09-12T07:08:57.021Z,17.20
2018-09-12T07:11:25.479Z,17.30
2018-09-12T07:13:53.947Z,17.40
2018-09-12T07:16:22.404Z,17.50
2018-09-12T07:18:50.955Z,17.50
2018-09-12T07:21:19.356Z,17.50
2018-09-12T07:23:47.952Z,17.60
2018-09-12T07:26:16.315Z,17.70
2018-09-12T07:28:44.864Z,17.70
2018-09-12T07:31:13.297Z,18.00
2018-09-12T07:33:41.980Z,18.00
2018-09-12T07:36:10.350Z,18.10
2018-09-12T07:38:39.149Z,18.20
2018-09-12T07:41:07.963Z,18.20
2018-09-12T07:43:36.404Z,18.30
2018-09-12T07:46:05.135Z,18.30
2018-09-12T07:48:33.549Z,18.40
2018-09-12T07:51:02.026Z,18.50
2018-09-12T07:53:30.458Z,18.60
2018-09-12T07:55:59.119Z,18.80
2018-09-12T07:58:27.707Z,18.90
2018-09-12T08:00:56.217Z,19.00
2018-09-12T08:03:24.623Z,19.10
2018-09-12T08:05:53.079Z,19.10
2018-09-12T08:08:21.582Z,19.00
2018-09-12T08:10:50.022Z,19.10
2018-09-12T08:13:18.435Z,19.20
2018-09-12T08:15:46.994Z,19.20
2018-09-12T08:18:15.432Z,19.20
2018-09-12T08:20:43.927Z,19.30
2018-09-12T08:23:12.441Z,19.30
2018-09-12T08:25:41.029Z,19.20
2018-09-12T08:28:09.566Z,19.30
2018-09-12T08:30:38.714Z,19.30
2018-09-12T08:33:07.767Z,19.40
2018-09-12T08:35:36.286Z,19.40
2018-09-12T08:38:05.456Z,19.50
2018-09-12T08:40:34.026Z,19.60
2018-09-12T08:43:02.458Z,19.90
2018-09-12T08:45:31.018Z,20.00
2018-09-12T08:47:59.497Z,19.90
2018-09-12T08:50:27.955Z,20.00
2018-09-12T08:52:56.750Z,20.10
2018-09-12T08:55:25.673Z,20.20
2018-09-12T08:57:54.247Z,20.40
2018-09-12T09:00:27.028Z,20.30
2018-09-12T09:02:55.838Z,20.40
2018-09-12T09:05:24.346Z,20.30
2018-09-12T09:07:52.748Z,20.30
2018-09-12T09:10:21.243Z,20.30
2018-09-12T09:12:49.709Z,20.30
2018-09-12T09:15:18.175Z,20.50
2018-09-12T09:17:46.694Z,20.60
2018-09-12T09:20:15.211Z,20.70
2018-09-12T09:22:43.651Z,20.70
2018-09-12T09:25:12.087Z,20.70
2018-09-12T09:27:40.780Z,20.90
2018-09-12T09:30:10.111Z,21.00
2018-09-12T09:32:39.721Z,21.00
2018-09-12T09:35:10.309Z,21.10
2018-09-12T09:37:39.943Z,21.10
2018-09-12T09:40:10.262Z,21.10
2018-09-12T09:42:39.365Z,21.20
2018-09-12T09:45:08.792Z,21.10
2018-09-12T09:47:37.881Z,21.00
2018-09-12T09:50:06.737Z,21.10
2018-09-12T09:52:35.770Z,21.10
2018-09-12T09:55:04.614Z,21.20
2018-09-12T09:57:33.214Z,21.40
2018-09-12T10:00:01.656Z,21.40
2018-09-12T10:02:35.378Z,21.40
2018-09-12T10:05:09.299Z,21.50
2018-09-12T10:07:43.153Z,21.60
2018-09-12T10:10:11.711Z,21.70
2018-09-12T10:12:40.240Z,21.70
2018-09-12T10:15:09.461Z,21.80
2018-09-12T10:17:38.024Z,21.90
2018-09-12T10:20:06.690Z,21.90
2018-09-12T10:22:35.542Z,22.10
2018-09-12T10:25:04.697Z,22.10
2018-09-12T10:27:33.168Z,22.00
2018-09-12T10:30:01.566Z,22.00
2018-09-12T10:32:30.075Z,22.10
2018-09-12T10:34:58.531Z,22.10
2018-09-12T10:37:26.951Z,22.20
2018-09-12T10:39:55.362Z,22.40
2018-09-12T10:42:23.868Z,22.50
2018-09-12T10:44:52.334Z,22.50
2018-09-12T10:48:50.111Z,22.60
2018-09-12T10:51:18.617Z,22.60
2018-09-12T10:53:47.089Z,22.60
2018-09-12T10:56:15.647Z,22.70
2018-09-12T10:58:44.120Z,22.60
2018-09-12T11:01:12.597Z,22.70
2018-09-12T11:03:41.080Z,22.60
2018-09-12T11:06:10.270Z,22.60
2018-09-12T11:08:39.534Z,22.60
2018-09-12T11:11:08.474Z,22.80
2018-09-12T11:13:37.373Z,22.80
2018-09-12T11:16:06.232Z,22.80
2018-09-12T11:18:34.827Z,22.90
2018-09-12T11:21:03.328Z,22.90
2018-09-12T11:23:31.826Z,23.00
2018-09-12T11:26:00.266Z,22.80
2018-09-12T11:28:28.777Z,23.00
2018-09-12T11:30:57.252Z,23.20
2018-09-12T11:33:25.745Z,23.20
2018-09-12T11:35:54.151Z,23.20
2018-09-12T11:38:22.642Z,23.10
2018-09-12T11:40:51.250Z,23.20
2018-09-12T11:43:19.731Z,23.20
2018-09-12T11:45:48.114Z,23.30
2018-09-12T11:48:16.786Z,23.40
2018-09-12T11:50:45.205Z,23.40
2018-09-12T11:53:13.780Z,23.50
2018-09-12T11:55:42.250Z,23.70
2018-09-12T11:58:10.651Z,23.70
2018-09-12T12:00:39.416Z,23.70
2018-09-12T12:03:08.174Z,23.60
2018-09-12T12:05:36.742Z,23.60
2018-09-12T12:08:05.313Z,23.60
2018-09-12T12:10:33.764Z,23.60
2018-09-12T12:13:02.271Z,23.70
2018-09-12T12:15:30.702Z,23.60
2018-09-12T12:17:59.233Z,23.80
2018-09-12T12:20:27.671Z,24.10
2018-09-12T12:22:56.241Z,24.20
2018-09-12T12:25:24.698Z,24.20
2018-09-12T12:27:53.264Z,24.20
2018-09-12T12:30:21.856Z,24.30
2018-09-12T12:32:50.342Z,24.30
2018-09-12T12:35:18.941Z,24.20
2018-09-12T12:37:47.538Z,24.20
2018-09-12T12:40:15.993Z,24.20
2018-09-12T12:42:44.563Z,24.10
2018-09-12T12:45:13.044Z,24.40
2018-09-12T12:47:41.442Z,24.40
2018-09-12T12:50:10.903Z,24.40
2018-09-12T12:52:39.921Z,24.50
2018-09-12T12:55:09.038Z,24.50
2018-09-12T12:57:37.600Z,24.60
2018-09-12T13:00:06.461Z,24.90
2018-09-12T13:02:34.936Z,24.90
2018-09-12T13:05:03.672Z,24.90
2018-09-12T13:07:32.249Z,25.30
2018-09-12T13:10:00.757Z,25.30
2018-09-12T13:12:29.303Z,25.50
2018-09-12T13:14:57.724Z,25.60
2018-09-12T13:17:26.492Z,25.70
2018-09-12T13:19:54.930Z,25.90
2018-09-12T13:22:23.401Z,26.00
2018-09-12T13:24:51.845Z,25.90
2018-09-12T13:27:20.375Z,26.00
2018-09-12T13:29:48.977Z,26.20
2018-09-12T13:32:17.548Z,26.30
2018-09-12T13:34:46.017Z,26.40
2018-09-12T13:37:14.428Z,26.20
2018-09-12T13:39:43.092Z,26.40
2018-09-12T13:42:12.536Z,26.30
2018-09-12T13:44:41.006Z,26.30
2018-09-12T13:47:10.526Z,26.60
2018-09-12T13:49:39.698Z,26.60
2018-09-12T13:52:10.192Z,26.60
2018-09-12T13:54:39.394Z,26.80
2018-09-12T13:57:08.184Z,27.30
2018-09-12T13:59:36.640Z,27.70
2018-09-12T14:02:06.091Z,28.00
2018-09-12T14:04:34.590Z,28.00
2018-09-12T14:07:03.164Z,28.10
2018-09-12T14:09:31.635Z,28.00
2018-09-12T14:12:01.498Z,28.00
2018-09-12T14:14:29.945Z,28.00
2018-09-12T14:16:58.480Z,27.80
2018-09-12T14:19:26.923Z,27.90
2018-09-12T14:21:56.513Z,27.90
2018-09-12T14:27:57.122Z,28.10
2018-09-12T14:30:25.742Z,28.00
2018-09-12T14:32:54.374Z,28.10
2018-09-12T14:35:22.869Z,28.10
2018-09-12T14:37:51.301Z,28.20
2018-09-12T14:40:19.890Z,28.20
2018-09-12T14:42:48.364Z,28.20
2018-09-12T14:45:16.902Z,28.10
2018-09-12T14:47:45.337Z,27.90
2018-09-12T14:50:13.853Z,27.60
2018-09-12T14:52:42.386Z,27.60
2018-09-12T14:55:10.960Z,27.70
2018-09-12T14:57:40.033Z,27.80
2018-09-12T15:00:09.472Z,27.70
2018-09-12T15:02:38.291Z,27.70
2018-09-12T15:05:06.956Z,27.70
2018-09-12T15:07:36.446Z,27.60
2018-09-12T15:10:05.358Z,27.50
2018-09-12T15:12:33.819Z,27.50
2018-09-12T15:15:02.360Z,27.50
2018-09-12T15:17:30.771Z,27.30
2018-09-12T15:19:59.246Z,27.20
2018-09-12T15:22:27.711Z,27.20
2018-09-12T15:24:56.165Z,27.10
2018-09-12T15:27:24.673Z,26.90
2018-09-12T15:29:53.168Z,26.90
2018-09-12T15:32:21.658Z,26.80
2018-09-12T15:34:50.381Z,26.80
2018-09-12T15:37:18.834Z,26.60
2018-09-12T15:39:47.390Z,26.50
2018-09-12T15:42:15.851Z,26.40
2018-09-12T15:44:44.680Z,26.40
2018-09-12T15:47:13.181Z,26.30
2018-09-12T15:49:41.847Z,26.30
2018-09-12T15:52:10.343Z,26.30
2018-09-12T15:54:39.433Z,26.20
2018-09-12T15:57:08.477Z,26.10
2018-09-12T15:59:36.901Z,26.10
2018-09-12T16:02:05.829Z,26.00
2018-09-12T16:04:34.295Z,25.90
2018-09-12T16:07:02.806Z,25.70
2018-09-12T16:09:31.302Z,25.70
2018-09-12T16:11:59.845Z,25.70
2018-09-12T16:14:28.326Z,25.60
2018-09-12T16:16:56.926Z,25.40
2018-09-12T16:19:25.551Z,25.30
2018-09-12T16:21:54.158Z,25.40
2018-09-12T16:24:22.784Z,25.40
2018-09-12T16:26:51.220Z,25.30
2018-09-12T16:29:19.719Z,25.30
2018-09-12T16:31:48.158Z,25.10
2018-09-12T16:34:16.743Z,25.10
2018-09-12T16:36:45.285Z,25.00
2018-09-12T16:39:14.074Z,25.00
2018-09-12T16:41:42.782Z,24.80
2018-09-12T16:44:11.298Z,24.70
2018-09-12T16:46:40.463Z,24.70
2018-09-12T16:49:09.429Z,24.60
2018-09-12T16:51:38.562Z,24.40
2018-09-12T16:54:07.475Z,24.30
2018-09-12T16:56:37.483Z,24.10
2018-09-12T16:59:06.048Z,24.00
2018-09-12T17:01:34.547Z,23.90
2018-09-12T17:04:02.950Z,23.70
2018-09-12T17:06:31.541Z,23.50
2018-09-12T17:08:59.993Z,23.40
2018-09-12T17:11:28.460Z,23.20
2018-09-12T17:13:56.928Z,23.10
2018-09-12T17:16:25.601Z,22.90
2018-09-12T17:18:54.220Z,22.70
2018-09-12T17:21:22.734Z,22.50
2018-09-12T17:23:51.239Z,22.40
2018-09-12T17:26:19.828Z,22.30
2018-09-12T17:28:48.323Z,22.20
2018-09-12T17:31:17.784Z,22.10
2018-09-12T17:33:46.217Z,21.90
2018-09-12T17:36:14.722Z,21.80
2018-09-12T17:38:43.161Z,21.70
2018-09-12T17:41:12.871Z,21.60
2018-09-12T17:43:41.376Z,21.60
2018-09-12T17:46:10.611Z,21.50
2018-09-12T17:48:39.648Z,21.40
2018-09-12T17:51:08.331Z,21.30
2018-09-12T17:53:36.862Z,21.20
2018-09-12T17:56:05.453Z,21.20
2018-09-12T17:58:34.035Z,21.20
2018-09-12T18:01:02.633Z,21.20
2018-09-12T18:03:31.065Z,21.20
2018-09-12T18:05:59.616Z,21.10
2018-09-12T18:08:28.079Z,21.10
2018-09-12T18:10:56.629Z,21.50
2018-09-12T18:13:25.344Z,21.50
2018-09-12T18:15:53.994Z,21.50
2018-09-12T18:18:22.409Z,21.40
2018-09-12T18:20:50.973Z,21.30
2018-09-12T18:23:19.486Z,21.00
2018-09-12T18:25:47.972Z,20.90
2018-09-12T18:28:16.365Z,20.90
2018-09-12T18:30:44.807Z,20.80
2018-09-12T18:33:13.503Z,20.80
2018-09-12T18:35:42.046Z,20.80
2018-09-12T18:38:10.546Z,20.70
2018-09-12T18:40:39.525Z,20.70
2018-09-12T18:43:08.485Z,20.60
2018-09-12T18:45:37.103Z,20.60
2018-09-12T18:48:05.724Z,20.60
2018-09-12T18:50:35.267Z,20.60
2018-09-12T18:53:03.813Z,20.60
2018-09-12T18:55:32.426Z,20.60
2018-09-12T18:58:00.856Z,20.50
2018-09-12T19:00:30.269Z,20.30
2018-09-12T19:02:59.753Z,20.30
2018-09-12T19:05:28.816Z,20.20
2018-09-12T19:07:57.264Z,20.20
2018-09-12T19:10:25.699Z,20.10
2018-09-12T19:12:54.439Z,20.20
2018-09-12T19:15:23.095Z,20.10
2018-09-12T19:17:51.549Z,20.10
2018-09-12T19:20:21.104Z,20.00
2018-09-12T19:22:49.586Z,20.00
2018-09-12T19:25:18.203Z,20.00
2018-09-12T19:27:46.728Z,20.00
2018-09-12T19:30:15.185Z,20.00
2018-09-12T19:32:44.260Z,20.00
2018-09-12T19:35:12.775Z,19.90
2018-09-12T19:37:41.200Z,20.00
2018-09-12T19:40:10.344Z,20.00
2018-09-12T19:42:39.260Z,19.90
2018-09-12T19:45:08.544Z,19.90
2018-09-12T19:47:37.005Z,19.90
2018-09-12T19:50:05.569Z,19.90
2018-09-12T19:52:33.959Z,20.00
2018-09-12T19:55:02.527Z,20.00
2018-09-12T19:57:31.076Z,20.00
2018-09-12T19:59:59.649Z,20.00
2018-09-12T20:02:33.495Z,19.90
2018-09-12T20:05:02.383Z,19.80
2018-09-12T20:07:32.114Z,19.90
2018-09-12T20:10:00.818Z,19.90
2018-09-12T20:12:29.296Z,19.80
2018-09-12T20:14:57.751Z,19.70
2018-09-12T20:17:26.185Z,19.80
2018-09-12T20:19:54.678Z,19.80
2018-09-12T20:22:23.179Z,19.80
2018-09-12T20:24:51.686Z,19.80
2018-09-12T20:27:20.215Z,19.80
2018-09-12T20:29:48.707Z,19.80
2018-09-12T20:32:17.219Z,19.80
2018-09-12T20:34:45.629Z,19.80
2018-09-12T20:37:14.643Z,19.80
2018-09-12T20:39:43.334Z,19.80
2018-09-12T20:42:11.887Z,19.80
2018-09-12T20:44:40.773Z,19.70
2018-09-12T20:47:10.103Z,19.70
2018-09-12T20:49:39.367Z,19.60
2018-09-12T20:52:10.574Z,19.50
2018-09-12T20:54:39.765Z,19.50
2018-09-12T20:57:09.840Z,19.60
2018-09-12T20:59:38.957Z,19.70
2018-09-12T21:02:08.550Z,19.60
2018-09-12T21:04:36.999Z,19.70
2018-09-12T21:07:05.616Z,19.60
2018-09-12T21:09:34.052Z,19.60
2018-09-12T21:12:03.473Z,19.70
2018-09-12T21:14:31.986Z,19.70
2018-09-12T21:17:00.539Z,19.70
2018-09-12T21:19:28.944Z,19.80
2018-09-12T21:21:57.387Z,19.80
2018-09-12T21:24:26.136Z,19.70
2018-09-12T21:26:54.699Z,19.60
2018-09-12T21:29:23.067Z,19.60
2018-09-12T21:31:51.618Z,19.50
2018-09-12T21:34:20.022Z,19.50
2018-09-12T21:36:48.480Z,19.50
2018-09-12T21:39:16.834Z,19.30
2018-09-12T21:41:45.375Z,19.40
2018-09-12T21:44:13.911Z,19.40
2018-09-12T21:46:42.426Z,19.50
2018-09-12T21:49:10.908Z,19.50
2018-09-12T21:51:39.991Z,19.60
2018-09-12T21:54:08.655Z,19.60
2018-09-12T21:56:37.080Z,19.70
2018-09-12T21:59:05.495Z,19.80
2018-09-12T22:01:35.107Z,19.80
2018-09-12T22:04:03.564Z,20.00
2018-09-12T22:06:32.137Z,20.00
2018-09-12T22:09:00.526Z,20.10
2018-09-12T22:11:29.028Z,20.00
2018-09-12T22:13:57.403Z,20.00
2018-09-12T22:16:25.910Z,19.90
2018-09-12T22:18:54.344Z,20.10
2018-09-12T22:21:22.917Z,20.00
2018-09-12T22:23:51.276Z,20.00
2018-09-12T22:26:19.847Z,19.80
2018-09-12T22:28:48.265Z,19.80
2018-09-12T22:31:16.777Z,19.80
2018-09-12T22:33:45.300Z,19.80
2018-09-12T22:36:14.138Z,19.80
2018-09-12T22:38:42.670Z,19.70
2018-09-12T22:41:11.314Z,19.60
2018-09-12T22:43:40.353Z,19.80
2018-09-12T22:46:10.919Z,19.90
2018-09-12T22:48:40.002Z,19.80
2018-09-12T22:51:08.657Z,19.60
2018-09-12T22:53:37.058Z,19.70
2018-09-12T22:56:05.645Z,19.70
2018-09-12T22:58:34.114Z,19.60
2018-09-12T23:01:02.628Z,19.60
2018-09-12T23:03:31.113Z,19.60
2018-09-12T23:05:59.537Z,19.50
2018-09-12T23:08:27.958Z,19.60
2018-09-12T23:10:56.367Z,19.50
2018-09-12T23:13:24.810Z,19.60
2018-09-12T23:15:53.283Z,19.60
2018-09-12T23:18:22.019Z,19.40
2018-09-12T23:20:50.556Z,19.20
2018-09-12T23:23:18.983Z,19.30
2018-09-12T23:25:47.464Z,19.40
2018-09-12T23:28:15.903Z,19.50
2018-09-12T23:30:44.368Z,19.30
2018-09-12T23:33:12.808Z,18.90
2018-09-12T23:35:41.322Z,19.10
2018-09-12T23:38:10.161Z,19.20
2018-09-12T23:40:38.995Z,19.10
2018-09-12T23:43:08.173Z,19.00
2018-09-12T23:45:36.634Z,19.00
2018-09-12T23:48:05.555Z,19.10
2018-09-12T23:50:34.022Z,18.90
2018-09-12T23:53:02.506Z,18.90
2018-09-12T23:55:30.980Z,18.70
2018-09-12T23:59:02.685Z,18.40
